Flight Track Log - Related Links

Times and Time Zones

All times are in EDT time to prevent confusion due to time zone crossing. See the EJA948 flight status page for this flight to view local times or setup timezone preferences in your user account.

Time Position Orientation Groundspeed Altitude Reporting Facility
EDT Latitude Longitude Course Direction KTS MPH feet Rate Location/Type
Thu 07:49:47 PM 40.8333 -74.0833 255° West 184 212 1,400  Level New York TRACON
Thu 07:50:47 PM 40.8167 -74.1667 255° West 206 237 1,800 1,550 Climbing New York TRACON
Thu 07:51:47 PM 40.8167 -74.2500 270° West 225 259 4,500 2,100 Climbing New York TRACON
Thu 07:52:47 PM 40.8667 -74.3000 323° Northwest 267 307 6,000 800 Climbing New York TRACON
Thu 07:53:47 PM 40.9333 -74.2667 21° North 269 310 6,100  Climbing New York TRACON
Thu 07:54:53 PM 41.0000 -74.2167 30° Northeast 270 311 6,000 -48 Descending New York TRACON
Thu 07:55:53 PM 41.0833 -74.1667 24° Northeast 278 320 6,000 526 Level New York TRACON
Thu 07:56:47 PM 41.1000 -74.1000 72° East 287 330 7,000 1,842 Climbing New York TRACON
Thu 07:57:47 PM 41.1333 -74.0000 66° East 296 341 9,500 1,531 Climbing New York TRACON
Thu 08:00:03 PM 41.2133 -73.7425 67° East 337 388 12,000 918 Climbing Boston Center
Thu 08:01:03 PM 41.1836 -73.6122 107° East 386 444 12,500 1,100 Climbing Boston Center
Thu 08:02:03 PM 41.1475 -73.4489 106° East 409 471 14,200 1,650 Climbing Boston Center
Thu 08:03:03 PM 41.1217 -73.2969 103° East 424 488 15,800 900 Climbing Boston Center
Thu 08:04:03 PM 41.1706 -73.1542 66° East 397 457 16,000 600 Climbing Boston Center
Thu 08:05:03 PM 41.2506 -73.0308 49° Northeast 401 461 17,000 455 Climbing Boston Center
Thu 08:06:15 PM 41.2908 -72.8517 73° East 423 487 17,000  Level Boston Center
Thu 08:07:15 PM 41.2975 -72.7025 87° East 429 494 17,000  Level Boston Center
Thu 08:08:15 PM 41.3083 -72.5258 85° East 429 494 17,000  Level Boston Center
Thu 08:09:15 PM 41.3144 -72.3847 87° East 435 501 17,000 -316 Level Boston Center
Thu 08:09:50 PM 41.3208 -72.2742 86° East 439 505 16,500 -1,220 Descending Boston Center
Thu 08:10:14 PM 41.3247 -72.2133 85° East 423 487 15,800 -1,694 Descending Boston Center
Thu 08:11:15 PM 41.3328 -72.0558 86° East 432 497 14,100 -1,736 Descending Boston Center
Thu 08:12:15 PM 41.3403 -71.8872 87° East 427 491 12,300 -1,438 Descending Boston Center
Thu 08:13:16 PM 41.3478 -71.7378 86° East 411 473 11,200 -984 Descending Boston Center
Thu 08:14:17 PM 41.3531 -71.5883 87° East 410 472 10,300 -595 Descending Boston Center
Thu 08:15:17 PM 41.3603 -71.4389 86° East 409 471 10,000 -185 Descending Boston Center
Thu 08:16:27 PM 41.3669 -71.2867 87° East 366 421 9,900 -462 Descending Boston Center
Thu 08:17:27 PM 41.3722 -71.1869 86° East 316 364 9,000 -1,100 Descending Boston Center
Thu 08:18:27 PM 41.3772 -71.0681 87° East 290 334 7,700 -1,300 Descending Boston Center
Thu 08:19:27 PM 41.3906 -70.9792 79° East 278 320 6,400 -1,300 Descending Boston Center
Thu 08:20:27 PM 41.4164 -70.8733 72° East 268 308 5,100 -1,050 Descending Boston Center
Thu 08:21:27 PM 41.4361 -70.7981 71° East 254 292 4,300 -1,100 Descending Boston Center
Thu 08:22:27 PM 41.4575 -70.7061 73° East 242 278 2,900 -1,300 Descending Boston Center
Thu 08:23:27 PM 41.4875 -70.6278 63° Northeast 235 270 1,700 -650 Descending Boston Center
Thu 08:24:27 PM 41.5219 -70.5658 53° Northeast 221 254 1,600 -50 Descending Boston Center
Thu 08:25:27 PM 41.5294 -70.5044 81° East 208 239 1,600 50 Level Boston Center
Thu 08:26:27 PM 41.4714 -70.5228 193° South 100 115 1,700 -150 Climbing Boston Center
Thu 08:27:27 PM 41.4447 -70.5542 221° Southwest 130 150 1,300 -500 Descending Boston Center
Thu 08:28:27 PM 41.4203 -70.5825 221° Southwest 132 152 700 -350 Descending Boston Center
Thu 08:29:27 PM 41.3956 -70.6111 221° Southwest 127 146 600 800 Descending Boston Center
Thu 08:30:27 PM 41.3519 -70.6122 181° South 140 161 2,300 1,200 Climbing Boston Center
Thu 08:31:27 PM 41.3319 -70.5381 110° East 175 201 3,000 350 Climbing Boston Center
Thu 08:32:27 PM 41.3622 -70.4819 54° Northeast 176 203 3,000  Level Boston Center
Thu 08:33:27 PM 41.4072 -70.4281 42° Northeast 188 216 3,000  Level Boston Center
Thu 08:34:27 PM 41.4628 -70.3875 29° Northeast 201 231 3,000  Level Boston Center
Thu 08:35:27 PM 41.5225 -70.3522 24° Northeast 214 246 3,000  Level Boston Center
Thu 08:36:27 PM 41.5842 -70.3142 25° Northeast 228 262 3,000  Level Boston Center
Thu 08:37:27 PM 41.6397 -70.2733 29° Northeast 233 268 3,000  Level Boston Center
Thu 08:38:27 PM 41.6800 -70.2025 53° Northeast 228 262 3,000  Level Boston Center
Thu 08:39:27 PM 41.7278 -70.1897 11° North 220 253 3,000  Level Boston Center
Thu 08:40:27 PM 41.7125 -70.2597 254° West 86 99 3,000  Level Boston Center
Thu 08:41:27 PM 41.6783 -70.3250 235° Southwest 149 171 3,000  Level Boston Center
Thu 08:42:39 PM 41.6167 -70.3686 208° Southwest 187 215 3,000  Level Boston Center
Thu 08:43:39 PM 41.5694 -70.4117 214° Southwest 199 229 3,000  Level Boston Center
Thu 08:44:39 PM 41.5306 -70.4628 225° Southwest 199 229 3,000 -300 Level Boston Center
Thu 08:45:39 PM 41.4856 -70.5086 217° Southwest 199 229 2,400 -700 Descending Boston Center
Thu 08:46:39 PM 41.4569 -70.5400 219° Southwest 167 192 1,600 -700 Descending Boston Center
Thu 08:47:39 PM 41.4283 -70.5714 219° Southwest 136 157 1,000 -500 Descending Boston Center
Thu 08:48:39 PM 41.4058 -70.5969 220° Southwest 120 138 600 -400 Descending Boston Center

Login

Don't have an account? Register now (free) for customized features, flight alerts, and more!